createdAt,value
2023-09-01T00:01:19.249Z,100524.81
2023-09-01T00:04:06.361Z,100527.81
2023-09-01T00:06:33.238Z,100525.56
2023-09-01T00:08:59.983Z,100519.59
2023-09-01T00:11:26.714Z,100521.63
2023-09-01T00:13:53.563Z,100523.66
2023-09-01T00:16:20.356Z,100513.38
2023-09-01T00:18:47.128Z,100516.44
2023-09-01T00:21:13.972Z,100512.47
2023-09-01T00:23:41.621Z,100520.63
2023-09-01T00:26:08.569Z,100513.84
2023-09-01T00:28:35.278Z,100517.50
2023-09-01T00:31:02.345Z,100520.53
2023-09-01T00:33:30.811Z,100523.38
2023-09-01T00:35:59.879Z,100521.91
2023-09-01T00:38:26.965Z,100522.94
2023-09-01T00:40:54.392Z,100509.66
2023-09-01T00:43:21.341Z,100519.25
2023-09-01T00:45:48.957Z,100514.97
2023-09-01T00:48:15.962Z,100507.00
2023-09-01T00:50:43.231Z,100520.28
2023-09-01T00:53:10.356Z,100511.47
2023-09-01T00:55:37.669Z,100511.47
2023-09-01T00:58:05.121Z,100507.00
2023-09-01T01:00:34.081Z,100510.66
2023-09-01T01:03:09.717Z,100523.31
2023-09-01T01:05:48.716Z,100514.69
2023-09-01T01:08:24.248Z,100521.03
2023-09-01T01:11:00.098Z,100510.97
2023-09-01T01:13:32.139Z,100516.47
2023-09-01T01:16:00.811Z,100509.69
2023-09-01T01:18:30.024Z,100510.88
2023-09-01T01:21:23.705Z,100506.97
2023-09-01T01:23:52.393Z,100510.78
2023-09-01T01:26:20.136Z,100513.44
2023-09-01T01:28:46.991Z,100518.13
2023-09-01T01:31:14.286Z,100510.34
2023-09-01T01:33:57.458Z,100513.19
2023-09-01T01:36:39.215Z,100514.00
2023-09-01T01:39:17.166Z,100517.69
2023-09-01T01:41:57.786Z,100512.38
2023-09-01T01:44:40.240Z,100516.00
2023-09-01T01:47:09.197Z,100515.84
2023-09-01T01:49:35.998Z,100523.00
2023-09-01T01:52:03.130Z,100521.16
2023-09-01T01:54:31.711Z,100523.81
2023-09-01T01:56:59.003Z,100529.94
2023-09-01T01:59:26.097Z,100537.91
2023-09-01T02:01:52.907Z,100533.63
2023-09-01T02:04:19.711Z,100530.31
2023-09-01T02:06:46.505Z,100531.13
2023-09-01T02:09:15.317Z,100531.94
2023-09-01T02:11:42.128Z,100521.34
2023-09-01T02:14:09.252Z,100525.66
2023-09-01T02:16:36.402Z,100523.00
2023-09-01T02:19:03.259Z,100518.50
2023-09-01T02:21:29.994Z,100515.66
2023-09-01T02:23:56.899Z,100520.97
2023-09-01T02:26:24.876Z,100516.66
2023-09-01T02:28:51.999Z,100526.28
2023-09-01T02:31:19.190Z,100521.97
2023-09-01T02:33:46.063Z,100532.41
2023-09-01T02:36:30.875Z,100535.88
2023-09-01T02:38:58.816Z,100526.47
2023-09-01T02:41:26.288Z,100525.66
2023-09-01T02:43:54.279Z,100530.13
2023-09-01T02:46:21.665Z,100530.97
2023-09-01T02:48:48.883Z,100529.31
2023-09-01T02:51:15.735Z,100525.00
2023-09-01T02:53:42.865Z,100530.31
2023-09-01T02:56:09.869Z,100532.34
2023-09-01T02:58:37.518Z,100535.00
2023-09-01T03:01:09.872Z,100532.50
2023-09-01T03:03:42.114Z,100532.69
2023-09-01T03:06:10.012Z,100527.75
2023-09-01T03:08:38.811Z,100532.25
2023-09-01T03:11:06.254Z,100529.78
2023-09-01T03:13:33.357Z,100538.72
2023-09-01T03:16:00.310Z,100530.13
2023-09-01T03:18:27.150Z,100526.81
2023-09-01T03:20:54.821Z,100534.78
2023-09-01T03:23:23.187Z,100532.13
2023-09-01T03:25:55.647Z,100528.03
2023-09-01T03:28:23.843Z,100532.53
2023-09-01T03:30:50.867Z,100536.00
2023-09-01T03:33:19.641Z,100543.31
2023-09-01T03:35:46.465Z,100528.41
2023-09-01T03:38:13.714Z,100538.38
2023-09-01T03:40:40.905Z,100544.50
2023-09-01T03:43:10.598Z,100547.16
2023-09-01T03:45:38.013Z,100549.81
2023-09-01T03:48:05.403Z,100557.78
2023-09-01T03:50:35.215Z,100557.78
2023-09-01T03:53:02.679Z,100548.34
2023-09-01T03:55:29.498Z,100551.00
2023-09-01T03:57:56.249Z,100547.53
2023-09-01T04:00:23.595Z,100545.88
2023-09-01T04:02:51.473Z,100546.25
2023-09-01T04:05:18.399Z,100554.22
2023-09-01T04:07:46.001Z,100553.56
2023-09-01T04:10:12.893Z,100551.09
2023-09-01T04:12:39.716Z,100558.25
2023-09-01T04:15:08.258Z,100557.59
2023-09-01T04:17:36.680Z,100554.28
2023-09-01T04:20:06.850Z,100551.81
2023-09-01T04:22:33.627Z,100557.28
2023-09-01T04:25:00.571Z,100557.13
2023-09-01T04:27:27.361Z,100562.25
2023-09-01T04:30:09.007Z,100559.59
2023-09-01T04:32:38.182Z,100561.44
2023-09-01T04:35:06.406Z,100561.25
2023-09-01T04:37:33.352Z,100560.06
2023-09-01T04:40:00.291Z,100556.88
2023-09-01T04:42:27.162Z,100561.00
2023-09-01T04:44:53.940Z,100554.13
2023-09-01T04:47:20.714Z,100566.00
2023-09-01T04:49:47.644Z,100564.00
2023-09-01T04:52:16.099Z,100569.78
2023-09-01T04:54:43.411Z,100572.53
2023-09-01T04:57:10.166Z,100566.66
2023-09-01T04:59:37.025Z,100572.44
2023-09-01T05:02:03.778Z,100568.88
2023-09-01T05:04:30.606Z,100576.94
2023-09-01T05:06:57.450Z,100572.91
2023-09-01T05:09:24.508Z,100572.34
2023-09-01T05:11:51.419Z,100576.09
2023-09-01T05:14:18.194Z,100583.03
2023-09-01T05:16:45.020Z,100590.47
2023-09-01T05:19:11.804Z,100594.56
2023-09-01T05:21:38.955Z,100594.22
2023-09-01T05:24:06.289Z,100586.53
2023-09-01T05:26:33.242Z,100584.16
2023-09-01T05:29:00.071Z,100580.53
2023-09-01T05:31:26.948Z,100586.38
2023-09-01T05:33:54.192Z,100584.44
2023-09-01T05:36:20.972Z,100580.66
2023-09-01T05:38:48.511Z,100574.19
2023-09-01T05:41:15.837Z,100582.69
2023-09-01T05:43:42.621Z,100579.50
2023-09-01T05:46:09.675Z,100584.53
2023-09-01T05:48:37.970Z,100583.81
2023-09-01T05:51:04.955Z,100584.69
2023-09-01T05:53:31.737Z,100593.53
2023-09-01T05:55:58.550Z,100587.25
2023-09-01T05:58:25.701Z,100585.25
2023-09-01T06:00:52.482Z,100583.47
2023-09-01T06:03:19.333Z,100593.97
2023-09-01T06:05:46.137Z,100594.88
2023-09-01T06:08:13.184Z,100606.00
2023-09-01T06:10:40.210Z,100600.09
2023-09-01T06:13:06.955Z,100600.56
2023-09-01T06:15:34.156Z,100598.38
2023-09-01T06:18:00.940Z,100600.84
2023-09-01T06:20:29.545Z,100593.09
2023-09-01T06:22:57.398Z,100597.03
2023-09-01T06:25:24.325Z,100595.81
2023-09-01T06:27:51.148Z,100600.59
2023-09-01T06:30:18.144Z,100600.81
2023-09-01T06:32:47.434Z,100609.06
2023-09-01T06:35:15.993Z,100611.75
2023-09-01T06:37:42.731Z,100610.53
2023-09-01T06:40:10.147Z,100612.63
2023-09-01T06:42:36.898Z,100613.84
2023-09-01T06:45:05.119Z,100607.88
2023-09-01T06:47:31.975Z,100609.28
2023-09-01T06:49:58.804Z,100611.53
2023-09-01T06:52:25.585Z,100616.25
2023-09-01T06:54:52.429Z,100622.41
2023-09-01T06:57:19.451Z,100615.81
2023-09-01T06:59:46.347Z,100616.81
2023-09-01T07:02:13.044Z,100618.03
2023-09-01T07:04:39.817Z,100612.84
2023-09-01T07:07:06.515Z,100610.31
2023-09-01T07:09:33.292Z,100623.66
2023-09-01T07:12:00.006Z,100619.69
2023-09-01T07:14:26.769Z,100621.72
2023-09-01T07:16:53.520Z,100616.53
2023-09-01T07:19:20.317Z,100625.63
2023-09-01T07:21:47.047Z,100624.56
2023-09-01T07:24:13.835Z,100628.84
2023-09-01T07:26:40.600Z,100624.88
2023-09-01T07:29:07.322Z,100629.31
2023-09-01T07:31:34.130Z,100621.41
2023-09-01T07:34:01.312Z,100614.78
2023-09-01T07:36:28.047Z,100615.50
2023-09-01T07:38:54.811Z,100613.38
2023-09-01T07:41:21.651Z,100616.50
2023-09-01T07:43:50.168Z,100627.91
2023-09-01T07:46:16.924Z,100629.28
2023-09-01T07:48:43.806Z,100635.56
2023-09-01T07:51:10.600Z,100635.84
2023-09-01T07:53:37.902Z,100634.94
2023-09-01T07:56:05.987Z,100628.28
2023-09-01T07:58:33.152Z,100632.28
2023-09-01T08:01:00.152Z,100636.28
2023-09-01T08:03:27.454Z,100639.16
2023-09-01T08:05:54.369Z,100636.59
2023-09-01T08:08:21.134Z,100629.50
2023-09-01T08:10:47.848Z,100629.63
2023-09-01T08:13:14.605Z,100630.28
2023-09-01T08:15:41.415Z,100628.22
2023-09-01T08:18:08.252Z,100632.56
2023-09-01T08:20:35.266Z,100629.09
2023-09-01T08:23:02.293Z,100623.91
2023-09-01T08:25:29.044Z,100626.13
2023-09-01T08:27:55.814Z,100632.22
2023-09-01T08:30:22.928Z,100623.31
2023-09-01T08:32:49.829Z,100630.59
2023-09-01T08:35:16.638Z,100617.00
2023-09-01T08:37:43.458Z,100624.94
2023-09-01T08:40:13.501Z,100618.13
2023-09-01T08:42:48.330Z,100609.59
2023-09-01T08:45:16.589Z,100616.72
2023-09-01T08:47:50.452Z,100629.00
2023-09-01T08:50:19.402Z,100624.53
2023-09-01T08:52:47.755Z,100614.91
2023-09-01T08:55:15.731Z,100628.16
2023-09-01T08:57:42.836Z,100626.50
2023-09-01T09:00:10.384Z,100620.66
2023-09-01T09:02:46.897Z,100618.25
2023-09-01T09:05:24.407Z,100611.13
2023-09-01T09:08:07.494Z,100615.44
2023-09-01T09:10:39.896Z,100610.06
2023-09-01T09:13:30.979Z,100619.69
2023-09-01T09:16:14.508Z,100610.53
2023-09-01T09:18:44.153Z,100610.84
2023-09-01T09:21:27.408Z,100615.09
2023-09-01T09:24:11.093Z,100615.25
2023-09-01T09:26:42.750Z,100611.63
2023-09-01T09:29:12.905Z,100612.94
2023-09-01T09:31:45.619Z,100604.41
2023-09-01T09:34:21.296Z,100603.44
2023-09-01T09:36:49.600Z,100598.75
2023-09-01T09:39:27.504Z,100611.41
2023-09-01T09:41:55.807Z,100611.53
2023-09-01T09:44:37.060Z,100609.00
2023-09-01T09:47:11.694Z,100602.59
2023-09-01T09:49:39.767Z,100607.91
2023-09-01T09:52:10.548Z,100606.97
2023-09-01T09:54:44.855Z,100609.28
2023-09-01T09:57:16.388Z,100618.81
2023-09-01T09:59:48.206Z,100607.56
2023-09-01T10:02:31.350Z,100617.34
2023-09-01T10:04:59.920Z,100621.59
2023-09-01T10:07:26.691Z,100623.59
2023-09-01T10:09:54.020Z,100625.88
2023-09-01T10:12:21.061Z,100623.47
2023-09-01T10:14:50.518Z,100617.00
2023-09-01T10:17:21.776Z,100625.69
2023-09-01T10:19:49.764Z,100625.19
2023-09-01T10:22:18.030Z,100625.00
2023-09-01T10:25:17.448Z,100625.81
2023-09-01T10:28:17.137Z,100633.97
2023-09-01T10:30:46.233Z,100631.84
2023-09-01T10:33:15.797Z,100637.03
2023-09-01T10:35:52.600Z,100641.88
2023-09-01T10:38:23.820Z,100637.28
2023-09-01T10:40:54.779Z,100632.38
2023-09-01T10:43:54.462Z,100636.44
2023-09-01T10:46:26.193Z,100641.59
2023-09-01T10:49:05.464Z,100640.56
2023-09-01T10:51:41.420Z,100642.75
2023-09-01T10:54:17.014Z,100644.44
2023-09-01T10:56:56.782Z,100641.94
2023-09-01T10:59:36.406Z,100637.03
2023-09-01T11:02:23.757Z,100647.81
2023-09-01T11:04:51.257Z,100644.56
2023-09-01T11:07:18.201Z,100646.69
2023-09-01T11:09:50.120Z,100639.66
2023-09-01T11:12:17.252Z,100648.03
2023-09-01T11:14:58.080Z,100632.78
2023-09-01T11:17:45.432Z,100641.47
2023-09-01T11:20:15.839Z,100633.50
2023-09-01T11:22:43.400Z,100637.00
2023-09-01T11:25:13.992Z,100637.75
2023-09-01T11:27:48.362Z,100642.75
2023-09-01T11:30:17.963Z,100641.06
2023-09-01T11:32:44.933Z,100633.34
2023-09-01T11:35:25.509Z,100648.13
2023-09-01T11:37:52.308Z,100645.63
2023-09-01T11:40:19.800Z,100648.25
2023-09-01T11:42:47.185Z,100650.69
2023-09-01T11:45:13.980Z,100643.88
2023-09-01T11:47:41.478Z,100647.53
2023-09-01T11:50:13.999Z,100649.97
2023-09-01T11:52:54.799Z,100645.66
2023-09-01T11:55:32.294Z,100645.88
2023-09-01T11:57:59.334Z,100649.34
2023-09-01T12:00:37.049Z,100647.41
2023-09-01T12:03:05.530Z,100655.69
2023-09-01T12:05:37.039Z,100647.47
2023-09-01T12:08:05.359Z,100643.66
2023-09-01T12:10:32.948Z,100639.88
2023-09-01T12:13:03.869Z,100626.03
2023-09-01T12:15:30.727Z,100635.84
2023-09-01T12:17:57.799Z,100638.63
2023-09-01T12:20:24.919Z,100643.38
2023-09-01T12:22:51.686Z,100625.19
2023-09-01T12:25:19.120Z,100635.34
2023-09-01T12:27:45.860Z,100632.78
2023-09-01T12:30:12.754Z,100641.34
2023-09-01T12:32:39.679Z,100639.69
2023-09-01T12:35:07.043Z,100643.09
2023-09-01T12:37:33.896Z,100647.94
2023-09-01T12:40:00.630Z,100645.22
2023-09-01T12:42:27.364Z,100646.06
2023-09-01T12:44:54.124Z,100644.34
2023-09-01T12:47:20.857Z,100647.78
2023-09-01T12:49:50.416Z,100642.03
2023-09-01T12:52:18.110Z,100637.47
2023-09-01T12:54:45.219Z,100641.06
2023-09-01T12:57:11.953Z,100640.25
2023-09-01T12:59:38.733Z,100635.44
2023-09-01T13:02:05.480Z,100634.44
2023-09-01T13:04:33.420Z,100631.56
2023-09-01T13:07:00.159Z,100625.81
2023-09-01T13:09:26.887Z,100637.53
2023-09-01T13:11:53.642Z,100632.53
2023-09-01T13:14:20.398Z,100631.06
2023-09-01T13:16:47.169Z,100629.88
2023-09-01T13:19:13.903Z,100625.06
2023-09-01T13:21:40.650Z,100627.31
2023-09-01T13:24:08.534Z,100630.94
2023-09-01T13:26:35.308Z,100632.34
2023-09-01T13:29:02.122Z,100630.19
2023-09-01T13:31:28.888Z,100625.91
2023-09-01T13:33:55.645Z,100627.78
2023-09-01T13:36:22.474Z,100629.84
2023-09-01T13:38:51.147Z,100627.59
2023-09-01T13:41:17.915Z,100620.50
2023-09-01T13:43:44.629Z,100618.50
2023-09-01T13:46:26.785Z,100621.88
2023-09-01T13:49:00.996Z,100622.09
2023-09-01T13:51:29.791Z,100623.66
2023-09-01T13:53:57.502Z,100625.75
2023-09-01T13:59:59.649Z,100629.13
2023-09-01T14:02:26.521Z,100629.69
2023-09-01T14:04:53.295Z,100635.97
2023-09-01T14:07:20.077Z,100637.69
2023-09-01T14:09:46.878Z,100635.03
2023-09-01T14:12:13.638Z,100636.16
2023-09-01T14:14:40.441Z,100639.53
2023-09-01T14:17:07.228Z,100635.00
2023-09-01T14:19:34.051Z,100639.19
2023-09-01T14:22:00.780Z,100645.19
2023-09-01T14:24:27.633Z,100637.63
2023-09-01T14:26:54.755Z,100640.63
2023-09-01T14:29:21.684Z,100632.75
2023-09-01T14:31:48.860Z,100634.38
2023-09-01T14:34:15.721Z,100632.22
2023-09-01T14:36:42.618Z,100636.03
2023-09-01T14:39:09.590Z,100635.47
2023-09-01T14:41:36.377Z,100641.09
2023-09-01T14:44:03.394Z,100632.72
2023-09-01T14:46:34.351Z,100634.59
2023-09-01T14:49:02.246Z,100635.06
2023-09-01T14:51:30.223Z,100631.47
2023-09-01T14:53:57.073Z,100632.25
2023-09-01T14:56:24.924Z,100625.22
2023-09-01T14:58:55.373Z,100623.03
2023-09-01T15:01:23.491Z,100626.25
2023-09-01T15:03:50.587Z,100627.81
2023-09-01T15:06:17.518Z,100627.00
2023-09-01T15:08:44.273Z,100622.09
2023-09-01T15:11:11.082Z,100629.06
2023-09-01T15:13:38.008Z,100629.00
2023-09-01T15:16:05.354Z,100625.41
2023-09-01T15:18:32.553Z,100627.00
2023-09-01T15:21:08.255Z,100630.50
2023-09-01T15:23:35.976Z,100629.38
2023-09-01T15:26:03.046Z,100635.59
2023-09-01T15:28:29.829Z,100626.44
2023-09-01T15:30:56.595Z,100624.84
2023-09-01T15:33:23.501Z,100627.63
2023-09-01T15:35:58.586Z,100629.81
2023-09-01T15:38:27.820Z,100625.75
2023-09-01T15:40:54.621Z,100634.41
2023-09-01T15:43:21.699Z,100634.47
2023-09-01T15:45:48.685Z,100640.00
2023-09-01T15:48:15.699Z,100642.81
2023-09-01T15:50:46.439Z,100642.44
2023-09-01T15:53:15.454Z,100649.56
2023-09-01T15:55:43.150Z,100648.06
2023-09-01T15:58:10.058Z,100642.69
2023-09-01T16:00:38.791Z,100650.81
2023-09-01T16:03:06.603Z,100649.19
2023-09-01T16:05:34.490Z,100644.28
2023-09-01T16:08:02.058Z,100641.00
2023-09-01T16:10:29.093Z,100643.69
2023-09-01T16:12:56.839Z,100646.28
2023-09-01T16:15:24.621Z,100652.59
2023-09-01T16:17:53.348Z,100651.16
2023-09-01T16:20:21.362Z,100651.34
2023-09-01T16:22:49.126Z,100654.50
2023-09-01T16:25:15.923Z,100657.34
2023-09-01T16:27:42.997Z,100659.06
2023-09-01T16:30:10.417Z,100654.28
2023-09-01T16:32:37.242Z,100646.78
2023-09-01T16:35:21.582Z,100657.34
2023-09-01T16:37:50.452Z,100655.72
2023-09-01T16:40:17.407Z,100664.38
2023-09-01T16:42:44.752Z,100664.13
2023-09-01T16:45:12.132Z,100674.63
2023-09-01T16:47:39.224Z,100668.47
2023-09-01T16:50:06.660Z,100665.09
2023-09-01T16:52:33.667Z,100669.81
2023-09-01T16:55:00.478Z,100680.47
2023-09-01T16:57:27.340Z,100683.09
2023-09-01T16:59:54.024Z,100691.09
2023-09-01T17:02:20.836Z,100697.41
2023-09-01T17:04:47.586Z,100696.72
2023-09-01T17:07:14.297Z,100695.22
2023-09-01T17:09:41.072Z,100695.09
2023-09-01T17:12:07.985Z,100698.06
2023-09-01T17:14:34.753Z,100700.41
2023-09-01T17:17:01.510Z,100689.63
2023-09-01T17:19:28.263Z,100691.75
2023-09-01T17:21:55.059Z,100695.97
2023-09-01T17:24:21.858Z,100698.88
2023-09-01T17:26:48.644Z,100704.75
2023-09-01T17:29:15.474Z,100714.34
2023-09-01T17:31:42.204Z,100707.78
2023-09-01T17:34:08.984Z,100713.03
2023-09-01T17:36:35.722Z,100708.59
2023-09-01T17:39:02.573Z,100702.03
2023-09-01T17:41:39.957Z,100706.84
2023-09-01T17:44:07.283Z,100716.44
2023-09-01T17:46:34.612Z,100720.84
2023-09-01T17:49:02.773Z,100725.28
2023-09-01T17:51:29.791Z,100730.56
2023-09-01T17:53:57.607Z,100728.34
2023-09-01T17:56:24.976Z,100738.53
2023-09-01T17:58:51.846Z,100734.66
2023-09-01T18:01:18.707Z,100735.34
2023-09-01T18:03:45.694Z,100737.19
2023-09-01T18:06:14.244Z,100732.88
2023-09-01T18:08:41.168Z,100727.94
2023-09-01T18:11:18.540Z,100722.47
2023-09-01T18:13:46.010Z,100726.06
2023-09-01T18:16:12.967Z,100735.28
2023-09-01T18:18:40.901Z,100725.69
2023-09-01T18:21:08.124Z,100737.34
2023-09-01T18:23:34.892Z,100741.53
2023-09-01T18:26:14.817Z,100737.84
2023-09-01T18:28:46.364Z,100739.59
2023-09-01T18:31:21.597Z,100734.53
2023-09-01T18:33:50.180Z,100747.47
2023-09-01T18:36:24.605Z,100751.28
2023-09-01T18:38:57.540Z,100762.31
2023-09-01T18:41:26.894Z,100757.84
2023-09-01T18:43:57.127Z,100762.00
2023-09-01T18:46:29.635Z,100767.03
2023-09-01T18:49:00.757Z,100774.69
2023-09-01T18:51:27.671Z,100774.31
2023-09-01T18:53:54.446Z,100784.47
2023-09-01T18:56:23.824Z,100789.00
2023-09-01T18:58:50.926Z,100793.78
2023-09-01T19:01:18.938Z,100797.53
2023-09-01T19:03:45.947Z,100806.59
2023-09-01T19:06:24.319Z,100811.97
2023-09-01T19:08:51.573Z,100811.38
2023-09-01T19:11:18.508Z,100811.38
2023-09-01T19:13:50.879Z,100814.72
2023-09-01T19:16:19.946Z,100814.34
2023-09-01T19:18:47.909Z,100815.63
2023-09-01T19:21:15.559Z,100820.97
2023-09-01T19:23:43.216Z,100827.16
2023-09-01T19:26:42.468Z,100827.16
2023-09-01T19:29:13.895Z,100839.97
2023-09-01T19:31:46.109Z,100839.97
2023-09-01T19:34:14.729Z,100836.47
2023-09-01T19:36:42.329Z,100836.94
2023-09-01T19:39:10.921Z,100842.50
2023-09-01T19:41:38.576Z,100846.25
2023-09-01T19:44:09.032Z,100852.44
2023-09-01T19:46:38.383Z,100856.53
2023-09-01T19:49:15.078Z,100855.72
2023-09-01T19:51:44.847Z,100859.22
2023-09-01T19:54:17.485Z,100859.44
2023-09-01T19:56:44.340Z,100854.91
2023-09-01T19:59:11.232Z,100859.44
2023-09-01T20:01:39.201Z,100869.34
2023-09-01T20:04:07.168Z,100867.72
2023-09-01T20:06:35.381Z,100864.78
2023-09-01T20:09:23.541Z,100859.88
2023-09-01T20:11:52.795Z,100871.88
2023-09-01T20:14:19.670Z,100874.75
2023-09-01T20:16:46.615Z,100878.44
2023-09-01T20:19:21.250Z,100871.66
2023-09-01T20:21:48.221Z,100870.03
2023-09-01T20:24:14.977Z,100872.94
2023-09-01T20:26:41.799Z,100873.13
2023-09-01T20:29:08.655Z,100869.84
2023-09-01T20:31:37.558Z,100867.41
2023-09-01T20:34:07.933Z,100874.84
2023-09-01T20:36:35.052Z,100880.22
2023-09-01T20:39:01.821Z,100873.41
2023-09-01T20:41:28.596Z,100874.47
2023-09-01T20:43:55.340Z,100876.53
2023-09-01T20:46:22.150Z,100883.16
2023-09-01T20:48:48.919Z,100882.34
2023-09-01T20:51:15.736Z,100883.97
2023-09-01T20:53:42.522Z,100886.06
2023-09-01T20:56:09.405Z,100884.41
2023-09-01T20:58:36.315Z,100885.25
2023-09-01T21:01:04.082Z,100890.75
2023-09-01T21:03:31.222Z,100883.56
2023-09-01T21:05:57.958Z,100898.81
2023-09-01T21:08:24.885Z,100903.34
2023-09-01T21:10:51.618Z,100901.72
2023-09-01T21:13:18.585Z,100894.72
2023-09-01T21:15:47.818Z,100898.44
2023-09-01T21:18:14.616Z,100903.19
2023-09-01T21:20:41.432Z,100905.28
2023-09-01T21:23:08.178Z,100905.88
2023-09-01T21:25:35.999Z,100905.88
2023-09-01T21:28:03.493Z,100913.69
2023-09-01T21:30:30.429Z,100909.16
2023-09-01T21:32:57.331Z,100915.34
2023-09-01T21:35:24.075Z,100917.81
2023-09-01T21:37:50.800Z,100917.22
2023-09-01T21:40:17.533Z,100918.84
2023-09-01T21:42:44.260Z,100921.31
2023-09-01T21:45:11.755Z,100918.44
2023-09-01T21:47:38.636Z,100923.56
2023-09-01T21:50:06.392Z,100926.84
2023-09-01T21:52:33.457Z,100929.53
2023-09-01T21:55:00.300Z,100932.22
2023-09-01T21:57:28.947Z,100929.31
2023-09-01T21:59:55.779Z,100931.41
2023-09-01T22:02:22.633Z,100938.41
2023-09-01T22:04:52.201Z,100936.78
2023-09-01T22:07:19.659Z,100938.63
2023-09-01T22:09:46.703Z,100942.94
2023-09-01T22:12:13.479Z,100941.31
2023-09-01T22:14:40.239Z,100938.84
2023-09-01T22:17:07.073Z,100949.56
2023-09-01T22:19:33.829Z,100938.22
2023-09-01T22:22:00.849Z,100942.78
2023-09-01T22:24:32.409Z,100943.81
2023-09-01T22:27:00.136Z,100945.88
2023-09-01T22:29:29.190Z,100955.78
2023-09-01T22:31:59.151Z,100956.25
2023-09-01T22:34:25.916Z,100956.66
2023-09-01T22:36:52.699Z,100961.41
2023-09-01T22:39:19.400Z,100962.88
2023-09-01T22:41:46.151Z,100956.28
2023-09-01T22:44:12.871Z,100962.91
2023-09-01T22:46:39.728Z,100964.16
2023-09-01T22:49:06.611Z,100967.28
2023-09-01T22:51:33.607Z,100965.81
2023-09-01T22:54:03.042Z,100972.03
2023-09-01T22:56:30.097Z,100961.72
2023-09-01T22:58:56.872Z,100972.44
2023-09-01T23:01:23.660Z,100972.44
2023-09-01T23:03:50.453Z,100977.81
2023-09-01T23:06:17.292Z,100975.13
2023-09-01T23:08:44.071Z,100978.00
2023-09-01T23:11:11.399Z,100976.16
2023-09-01T23:13:38.111Z,100963.78
2023-09-01T23:16:05.013Z,100977.19
2023-09-01T23:18:31.754Z,100971.81
2023-09-01T23:20:59.921Z,100981.53
2023-09-01T23:23:26.995Z,100982.16
2023-09-01T23:25:53.765Z,100979.47
2023-09-01T23:28:20.483Z,100974.09
2023-09-01T23:30:47.274Z,100971.81
2023-09-01T23:33:14.105Z,100969.97
2023-09-01T23:35:40.900Z,100972.88
2023-09-01T23:38:07.846Z,100975.75
2023-09-01T23:40:34.579Z,100974.09
2023-09-01T23:43:01.430Z,100972.03
2023-09-01T23:45:28.268Z,100973.09
2023-09-01T23:47:56.789Z,100979.06
2023-09-01T23:50:23.709Z,100981.75
2023-09-01T23:52:50.457Z,100982.56
2023-09-01T23:55:17.347Z,100974.50
2023-09-01T23:57:44.101Z,100986.50
